Time;durP1;ratioP1;P1;durP2;ratioP2;P2;SDS_P1;SDS_P2;PMS_P1;PMS_P2;Temp;Humidity;BMP_temperature;BMP_pressure;BME280_temperature;BME280_humidity;BME280_pressure;Samples;Min_cycle;Max_cycle;Signal;HPM_P1;HPM_P2
2021/12/08 01:57:48;;;;;;;3.60;1.30;;;;;;;0.70;46.93;93623.75;5411794;23;20433;-84
2021/12/08 02:00:23;;;;;;;3.60;1.30;;;;;;;0.63;46.73;93629.03;4904489;29;20044;-85
2021/12/08 02:02:49;;;;;;;3.78;1.60;;;;;;;0.63;46.03;93623.88;4905670;29;20043;-88
2021/12/08 02:05:16;;;;;;;5.35;2.35;;;;;;;0.73;45.30;93622.53;4896808;29;20337;-87
2021/12/08 02:07:42;;;;;;;4.97;1.98;;;;;;;0.82;45.38;93616.81;4901972;29;20052;-85
2021/12/08 02:10:11;;;;;;;3.13;1.65;;;;;;;0.92;45.17;93610.28;4918262;29;20082;-84
2021/12/08 02:12:40;;;;;;;5.03;1.50;;;;;;;1.07;45.10;93615.00;4909291;29;20041;-84
2021/12/08 02:15:11;;;;;;;3.03;1.63;;;;;;;1.21;45.04;93605.22;4899522;29;20039;-84
2021/12/08 02:20:42;;;;;;;3.00;1.48;;;;;;;1.38;44.97;93597.56;4887589;29;20345;-84
2021/12/08 02:23:07;;;;;;;4.40;1.52;;;;;;;1.34;46.15;93594.66;4901797;29;20497;-84
2021/12/08 02:25:36;;;;;;;4.47;1.80;;;;;;;1.26;47.64;93587.28;4898946;29;20123;-84
2021/12/08 02:28:21;;;;;;;3.67;1.40;;;;;;;1.04;47.57;93571.63;4915609;29;20068;-84
2021/12/08 02:30:53;;;;;;;4.13;1.50;;;;;;;0.99;49.06;93562.72;4921290;29;20042;-84
2021/12/08 02:47:12;;;;;;;3.50;1.15;;;;;;;0.53;57.94;93562.56;4919501;29;20035;-82
2021/12/08 02:49:38;;;;;;;3.35;1.42;;;;;;;0.61;60.07;93558.06;4919203;29;20517;-82
2021/12/08 02:52:06;;;;;;;4.65;1.20;;;;;;;0.64;62.02;93557.59;4920331;29;20107;-82
2021/12/08 02:54:44;;;;;;;6.65;1.00;;;;;;;0.73;64.52;93555.50;4918929;29;20438;-82
2021/12/08 02:57:11;;;;;;;5.18;1.48;;;;;;;0.74;64.71;93547.53;4919096;29;20130;-83
2021/12/08 02:59:37;;;;;;;4.50;1.67;;;;;;;0.68;67.58;93554.38;4920614;29;20032;-82
2021/12/08 03:02:04;;;;;;;2.53;1.08;;;;;;;0.64;65.54;93542.13;4907213;29;20432;-82
2021/12/08 03:04:30;;;;;;;3.30;1.17;;;;;;;0.69;66.14;93537.13;4924531;29;20119;-83
2021/12/08 03:06:56;;;;;;;4.35;1.50;;;;;;;0.85;67.48;93538.19;4916188;29;20167;-83
2021/12/08 03:09:22;;;;;;;4.57;1.80;;;;;;;0.82;69.25;93536.88;4922759;29;20040;-83
2021/12/08 03:11:52;;;;;;;6.18;1.45;;;;;;;1.38;71.55;93543.34;4922935;29;20081;-83
2021/12/08 03:14:36;;;;;;;6.20;1.30;;;;;;;1.65;75.84;93535.06;4907261;29;20036;-83
2021/12/08 03:17:09;;;;;;;4.70;1.65;;;;;;;1.72;78.02;93530.53;4907168;29;20032;-83
2021/12/08 03:19:35;;;;;;;3.92;1.58;;;;;;;1.73;89.24;93521.78;4903811;29;20093;-83
2021/12/08 03:22:10;;;;;;;5.75;1.75;;;;;;;1.83;92.09;93529.69;4888356;29;20032;-83
2021/12/08 03:24:38;;;;;;;5.75;1.35;;;;;;;1.76;92.37;93531.66;4889477;29;20068;-83
2021/12/08 03:32:26;;;;;;;10.57;1.83;;;;;;;1.82;100.00;93517.78;4888801;29;20048;-83
2021/12/08 03:34:52;;;;;;;5.45;1.70;;;;;;;1.83;100.00;93521.94;4904711;29;20037;-83
2021/12/08 03:37:26;;;;;;;4.78;2.00;;;;;;;1.76;100.00;93517.94;4888193;29;20097;-83
2021/12/08 03:39:51;;;;;;;5.63;1.60;;;;;;;1.79;100.00;93520.84;4887992;29;20048;-82
2021/12/08 03:42:23;;;;;;;4.07;1.25;;;;;;;1.83;100.00;93521.16;4887875;29;20064;-83
2021/12/08 03:44:50;;;;;;;7.47;1.70;;;;;;;1.84;100.00;93510.59;4880103;29;20043;-83
2021/12/08 03:47:37;;;;;;;3.97;1.35;;;;;;;1.97;100.00;93513.88;4887927;29;20111;-83
2021/12/08 03:50:06;;;;;;;4.45;1.40;;;;;;;2.05;100.00;93504.97;4888184;29;20084;-82
2021/12/08 03:52:32;;;;;;;2.65;1.15;;;;;;;1.95;100.00;93505.59;4887689;29;20486;-82
2021/12/08 03:54:57;;;;;;;4.07;1.65;;;;;;;1.88;100.00;93497.22;4904297;29;20040;-82
2021/12/08 03:57:23;;;;;;;5.68;1.60;;;;;;;2.07;100.00;93493.38;4887639;29;20139;-83
2021/12/08 03:59:48;;;;;;;2.42;1.25;;;;;;;1.97;100.00;93491.44;4887629;29;20029;-83
2021/12/08 04:02:14;;;;;;;3.50;1.20;;;;;;;1.93;100.00;93487.72;4887630;29;20036;-83
2021/12/08 04:04:48;;;;;;;6.15;1.58;;;;;;;1.95;100.00;93483.13;4887421;29;20033;-83
2021/12/08 04:07:16;;;;;;;6.15;1.90;;;;;;;1.92;100.00;93493.91;4874426;29;20032;-83
2021/12/08 04:09:44;;;;;;;7.13;1.60;;;;;;;1.92;100.00;93486.16;4887555;29;20032;-83
2021/12/08 04:12:12;;;;;;;5.53;1.42;;;;;;;1.93;100.00;93489.56;4887466;29;20402;-83
2021/12/08 04:14:41;;;;;;;5.97;1.65;;;;;;;1.96;100.00;93492.47;4887171;29;20059;-83
2021/12/08 04:20:08;;;;;;;4.10;1.58;;;;;;;2.11;100.00;93481.56;4904330;29;20040;-83
2021/12/08 04:22:36;;;;;;;4.53;1.58;;;;;;;2.14;100.00;93472.56;4871644;29;20081;-83
2021/12/08 04:25:09;;;;;;;2.72;1.40;;;;;;;2.03;100.00;93474.22;4903602;29;20032;-83
2021/12/08 04:27:38;;;;;;;2.58;1.42;;;;;;;2.02;100.00;93467.47;4903944;29;20079;-83
2021/12/08 04:30:10;;;;;;;6.75;1.58;;;;;;;2.03;100.00;93463.09;4887017;29;20028;-82
2021/12/08 04:32:37;;;;;;;7.20;1.75;;;;;;;1.94;100.00;93450.56;4901955;29;20171;-82
2021/12/08 04:35:07;;;;;;;3.25;1.33;;;;;;;1.86;100.00;93457.91;4902685;29;20072;-83
2021/12/08 04:37:37;;;;;;;7.40;2.13;;;;;;;1.82;100.00;93453.22;4905162;29;20047;-83
2021/12/08 04:40:34;;;;;;;4.88;1.95;;;;;;;1.73;100.00;93451.25;4920769;29;20028;-83
2021/12/08 04:43:13;;;;;;;3.50;1.70;;;;;;;1.73;100.00;93448.69;4908598;29;20678;-85
2021/12/08 05:00:17;;;;;;;1.50;1.00;;;;;;;1.52;100.00;93438.81;4895731;29;20036;-87
2021/12/08 05:08:19;;;;;;;3.60;1.50;;;;;;;1.23;100.00;93410.44;4896703;29;20032;-87
2021/12/08 05:10:45;;;;;;;7.35;1.50;;;;;;;1.22;100.00;93411.47;4902297;29;20485;-87
2021/12/08 05:13:14;;;;;;;3.70;1.42;;;;;;;1.10;100.00;93418.47;4902001;29;20128;-87
2021/12/08 05:15:58;;;;;;;4.57;1.83;;;;;;;1.10;100.00;93416.69;4901827;29;20032;-87
2021/12/08 05:18:43;;;;;;;3.53;1.55;;;;;;;1.17;100.00;93418.34;4902056;29;20334;-88
2021/12/08 05:21:42;;;;;;;4.15;1.73;;;;;;;1.14;100.00;93411.81;4901667;29;20028;-87
2021/12/08 05:30:07;;;;;;;4.72;1.70;;;;;;;1.35;100.00;93401.88;4901644;29;20517;-85
2021/12/08 05:35:18;;;;;;;6.72;1.67;;;;;;;1.23;100.00;93394.19;4901626;29;20048;-86
2021/12/08 05:37:44;;;;;;;3.40;1.52;;;;;;;1.14;100.00;93378.28;4902528;29;20069;-85
2021/12/08 05:40:16;;;;;;;4.28;1.67;;;;;;;1.19;100.00;93377.59;4901189;29;20032;-86
2021/12/08 05:42:41;;;;;;;2.15;1.23;;;;;;;1.11;100.00;93366.66;4923912;29;20030;-86
2021/12/08 05:45:11;;;;;;;2.90;1.50;;;;;;;1.08;100.00;93372.28;4904657;29;20123;-86
2021/12/08 05:47:38;;;;;;;4.47;1.45;;;;;;;1.17;100.00;93364.16;4920083;29;20032;-86
2021/12/08 05:53:08;;;;;;;8.95;1.52;;;;;;;1.18;100.00;93366.50;4920183;29;20192;-86
2021/12/08 05:55:35;;;;;;;7.80;1.70;;;;;;;1.29;100.00;93364.06;4921172;29;20032;-86
2021/12/08 06:01:15;;;;;;;5.78;1.38;;;;;;;1.48;100.00;93359.47;4920059;29;20035;-86
2021/12/08 06:03:41;;;;;;;3.00;1.30;;;;;;;1.39;100.00;93366.81;4904177;29;20043;-85
2021/12/08 06:06:11;;;;;;;3.50;1.70;;;;;;;1.41;100.00;93363.00;4919751;29;20043;-85
2021/12/08 06:08:37;;;;;;;1.30;1.00;;;;;;;1.35;100.00;93353.59;4903847;29;20043;-86
2021/12/08 06:11:04;;;;;;;4.65;1.20;;;;;;;1.35;100.00;93352.84;4919762;29;20124;-85
2021/12/08 06:13:33;;;;;;;3.17;1.67;;;;;;;1.34;100.00;93357.19;4921080;29;20065;-85
2021/12/08 06:16:04;;;;;;;3.60;1.50;;;;;;;1.40;100.00;93353.69;4904119;29;20055;-87
2021/12/08 06:18:36;;;;;;;3.05;1.30;;;;;;;1.61;100.00;93346.25;4919925;29;20021;-88
2021/12/08 06:21:08;;;;;;;4.07;1.13;;;;;;;1.55;100.00;93347.97;4920201;29;20097;-88
2021/12/08 06:23:36;;;;;;;4.68;1.23;;;;;;;1.60;100.00;93356.81;4904127;29;20123;-88
2021/12/08 06:26:02;;;;;;;5.03;1.30;;;;;;;1.68;100.00;93349.47;4904293;29;20031;-88
2021/12/08 06:28:31;;;;;;;2.22;1.45;;;;;;;1.81;100.00;93350.91;4920760;29;20394;-88
2021/12/08 06:30:57;;;;;;;3.10;1.00;;;;;;;1.80;100.00;93336.44;4919726;29;20055;-87
2021/12/08 06:33:22;;;;;;;2.20;0.90;;;;;;;1.76;100.00;93340.53;4919324;29;20032;-87
2021/12/08 06:35:57;;;;;;;4.82;1.10;;;;;;;1.74;100.00;93350.31;4903197;29;20032;-88
2021/12/08 06:38:24;;;;;;;4.00;1.35;;;;;;;1.67;100.00;93332.41;4935554;29;20449;-88
2021/12/08 06:41:15;;;;;;;6.75;1.33;;;;;;;1.67;100.00;93326.44;4919628;29;20118;-88
2021/12/08 06:43:46;;;;;;;5.85;1.13;;;;;;;1.78;100.00;93317.03;4919513;29;20063;-88
2021/12/08 06:46:13;;;;;;;4.78;1.20;;;;;;;1.74;100.00;93306.41;4920613;29;20028;-88
2021/12/08 06:48:42;;;;;;;4.57;1.52;;;;;;;1.71;100.00;93300.94;4903810;29;20334;-88
2021/12/08 06:51:20;;;;;;;4.25;1.10;;;;;;;1.71;100.00;93300.94;4919424;29;20036;-87
2021/12/08 06:53:49;;;;;;;6.10;1.25;;;;;;;1.80;100.00;93294.34;4919336;29;20362;-89
2021/12/08 06:56:27;;;;;;;4.22;1.33;;;;;;;1.86;100.00;93306.31;4919546;29;20043;-89
2021/12/08 06:59:00;;;;;;;2.13;0.95;;;;;;;1.87;100.00;93304.50;4919427;29;20031;-88
2021/12/08 07:07:37;;;;;;;5.32;1.30;;;;;;;2.02;100.00;93301.34;4919527;29;20042;-88
2021/12/08 07:10:11;;;;;;;3.75;1.33;;;;;;;2.05;100.00;93296.47;4903295;29;20028;-88
2021/12/08 07:12:45;;;;;;;4.07;1.00;;;;;;;1.97;100.00;93295.09;4919242;29;20036;-88
2021/12/08 07:15:31;;;;;;;6.57;1.40;;;;;;;2.08;100.00;93284.84;4919139;29;20032;-88
2021/12/08 07:18:00;;;;;;;4.05;1.02;;;;;;;2.17;100.00;93286.00;4903719;29;20032;-87
2021/12/08 07:20:46;;;;;;;1.60;1.00;;;;;;;2.14;100.00;93258.06;4903596;29;20441;-92
2021/12/08 07:23:17;;;;;;;6.25;1.35;;;;;;;2.20;100.00;93272.59;4915817;29;20036;-88
2021/12/08 07:25:44;;;;;;;2.78;1.20;;;;;;;2.24;100.00;93278.06;4900360;29;20040;-88
2021/12/08 07:28:11;;;;;;;5.63;1.20;;;;;;;2.29;100.00;93265.19;4884604;29;20032;-86
2021/12/08 07:30:59;;;;;;;3.42;1.33;;;;;;;2.28;100.00;93258.47;4884622;29;20055;-85
2021/12/08 07:33:26;;;;;;;2.50;1.25;;;;;;;2.26;100.00;93255.34;4905360;29;20028;-86
2021/12/08 07:35:55;;;;;;;3.63;1.20;;;;;;;2.40;100.00;93259.13;4901619;29;20028;-86
2021/12/08 07:38:23;;;;;;;5.95;1.60;;;;;;;2.53;100.00;93245.03;4868843;29;20027;-86
2021/12/08 07:41:05;;;;;;;6.97;1.60;;;;;;;2.46;100.00;93238.50;4868735;29;20124;-86
2021/12/08 07:43:32;;;;;;;3.67;1.35;;;;;;;2.44;100.00;93236.16;4884866;29;20051;-85
2021/12/08 07:48:59;;;;;;;3.13;1.20;;;;;;;2.53;100.00;93223.56;4890205;29;20080;-86
2021/12/08 07:51:31;;;;;;;1.95;1.00;;;;;;;2.61;100.00;93217.16;4887514;29;20039;-85
2021/12/08 07:53:58;;;;;;;5.72;1.10;;;;;;;2.72;100.00;93220.59;4887515;29;20036;-86
2021/12/08 07:56:25;;;;;;;3.25;1.50;;;;;;;2.68;100.00;93223.69;4887618;29;20032;-86
2021/12/08 08:01:45;;;;;;;4.75;1.42;;;;;;;2.65;100.00;93225.97;4923240;29;20124;-85
2021/12/08 08:04:13;;;;;;;2.80;1.27;;;;;;;3.04;100.00;93223.19;4916845;29;20032;-85
2021/12/08 08:06:42;;;;;;;2.30;1.20;;;;;;;3.04;100.00;93212.84;4921995;29;20028;-85
2021/12/08 08:12:02;;;;;;;5.22;1.58;;;;;;;2.52;100.00;93216.81;4921589;29;20103;-85
2021/12/08 08:14:38;;;;;;;4.03;1.58;;;;;;;2.64;100.00;93208.91;4937603;29;20095;-84
2021/12/08 08:17:10;;;;;;;6.88;1.52;;;;;;;2.91;100.00;93202.91;4906673;29;20035;-85
2021/12/08 08:19:45;;;;;;;2.80;1.30;;;;;;;2.97;100.00;93199.34;4922383;29;20437;-84
2021/12/08 08:22:22;;;;;;;7.47;1.77;;;;;;;2.79;100.00;93188.34;4889628;29;20064;-85
2021/12/08 08:25:06;;;;;;;4.53;1.70;;;;;;;3.05;100.00;93167.81;4902588;29;20020;-85
2021/12/08 08:27:32;;;;;;;4.32;1.60;;;;;;;2.96;100.00;93151.22;4912172;29;20032;-85
2021/12/08 08:29:58;;;;;;;3.53;1.38;;;;;;;2.97;100.00;93147.59;4921573;29;20031;-85
2021/12/08 08:32:30;;;;;;;4.72;1.92;;;;;;;3.23;100.00;93143.34;4921378;29;20039;-85
2021/12/08 08:35:23;;;;;;;6.68;2.33;;;;;;;2.92;100.00;93138.00;4907692;29;20032;-85
2021/12/08 08:37:52;;;;;;;2.90;1.27;;;;;;;2.78;100.00;93129.88;4879940;29;20107;-84
2021/12/08 08:40:43;;;;;;;4.22;1.67;;;;;;;2.79;100.00;93136.59;4921138;29;20028;-83
2021/12/08 08:43:10;;;;;;;5.18;1.42;;;;;;;2.74;100.00;93140.97;4914416;29;20040;-83
2021/12/08 08:45:51;;;;;;;5.00;2.00;;;;;;;2.88;100.00;93141.31;4936723;29;20032;-83
2021/12/08 08:48:31;;;;;;;4.97;2.42;;;;;;;3.56;100.00;93142.44;4920911;29;20100;-82
2021/12/08 08:51:05;;;;;;;4.93;2.15;;;;;;;3.76;100.00;93128.78;4905086;29;20092;-83
2021/12/08 08:53:34;;;;;;;9.68;2.63;;;;;;;3.63;100.00;93140.41;4894556;29;20032;-84
2021/12/08 08:56:08;;;;;;;9.60;1.92;;;;;;;3.37;100.00;93133.31;4921339;29;20118;-85
2021/12/08 08:58:35;;;;;;;5.78;2.38;;;;;;;3.73;100.00;93124.13;4910367;29;20347;-85
2021/12/08 09:01:08;;;;;;;4.55;1.80;;;;;;;3.84;100.00;93105.00;4886473;29;20131;-83
2021/12/08 09:03:36;;;;;;;5.40;2.30;;;;;;;3.61;100.00;93094.03;4901738;29;20024;-83
2021/12/08 09:06:24;;;;;;;5.00;3.10;;;;;;;3.96;100.00;93094.38;4901891;29;20426;-83
2021/12/08 09:08:50;;;;;;;12.15;2.47;;;;;;;3.74;100.00;93085.03;4901583;29;20357;-83
2021/12/08 09:11:23;;;;;;;7.65;2.63;;;;;;;4.05;100.00;93082.47;4901613;29;20036;-83
2021/12/08 09:14:00;;;;;;;7.32;2.33;;;;;;;4.08;100.00;93074.19;4901582;29;20028;-83
2021/12/08 09:16:37;;;;;;;12.32;2.40;;;;;;;4.07;100.00;93062.25;4889840;29;20024;-83
2021/12/08 09:19:14;;;;;;;4.82;2.33;;;;;;;3.98;100.00;93058.59;4917802;29;20024;-83
2021/12/08 09:21:54;;;;;;;6.05;2.60;;;;;;;4.12;100.00;93048.53;4913972;29;20106;-83
2021/12/08 09:24:38;;;;;;;6.53;2.78;;;;;;;3.90;100.00;93062.50;4912577;29;20031;-82
2021/12/08 09:27:07;;;;;;;5.22;2.58;;;;;;;4.13;100.00;93049.28;4933933;29;20445;-83
2021/12/08 09:29:46;;;;;;;4.38;2.30;;;;;;;4.18;100.00;93025.97;4901312;29;20119;-83
2021/12/08 09:32:24;;;;;;;6.85;2.65;;;;;;;4.18;100.00;93007.84;4901468;29;20353;-83
2021/12/08 09:34:59;;;;;;;7.75;2.63;;;;;;;4.14;100.00;93019.75;4879931;29;20068;-83
2021/12/08 09:40:22;;;;;;;7.70;3.85;;;;;;;3.97;100.00;93000.03;4897080;29;20509;-83
2021/12/08 09:42:49;;;;;;;;;;;;;;;3.92;100.00;93000.06;4913647;29;20038;-83
2021/12/08 09:45:18;;;;;;;7.80;3.95;;;;;;;3.80;100.00;92987.34;4920856;29;19946;-83
2021/12/08 09:47:43;;;;;;;28.08;12.82;;;;;;;3.92;100.00;92994.88;4935503;29;20024;-82
2021/12/08 09:50:11;;;;;;;7.20;3.85;;;;;;;3.98;100.00;92982.69;4935880;29;20031;-83
2021/12/08 09:52:37;;;;;;;15.35;5.18;;;;;;;4.34;100.00;92975.66;4919834;29;20039;-83
2021/12/08 09:55:05;;;;;;;24.17;12.35;;;;;;;4.82;100.00;92966.72;4935164;29;20024;-83
2021/12/08 09:57:31;;;;;;;7.72;4.40;;;;;;;5.23;100.00;92950.16;4907991;29;20052;-83
2021/12/08 09:59:57;;;;;;;7.10;3.92;;;;;;;5.50;100.00;92934.19;4900693;29;20036;-83
2021/12/08 10:02:33;;;;;;;17.88;10.25;;;;;;;5.93;100.00;92920.59;4903349;29;20031;-83
2021/12/08 10:05:18;;;;;;;6.68;3.95;;;;;;;5.86;100.00;92906.34;4912626;29;20408;-83
2021/12/08 10:07:44;;;;;;;5.32;3.00;;;;;;;5.89;100.00;92911.03;4917096;29;20037;-83
2021/12/08 10:10:13;;;;;;;12.05;7.05;;;;;;;6.27;100.00;92913.03;4884944;29;20037;-83
2021/12/08 10:12:39;;;;;;;6.03;3.15;;;;;;;6.56;100.00;92897.38;4900760;29;20040;-83
2021/12/08 10:15:08;;;;;;;6.25;3.15;;;;;;;6.86;100.00;92905.88;4884826;29;20088;-83
2021/12/08 10:17:34;;;;;;;10.05;3.22;;;;;;;6.16;100.00;92909.75;4884821;29;20437;-83
2021/12/08 10:23:37;;;;;;;5.22;3.47;;;;;;;5.36;100.00;92887.25;4900821;29;20048;-83
2021/12/08 10:26:23;;;;;;;11.63;7.55;;;;;;;5.37;100.00;92872.44;4926139;29;20040;-83
2021/12/08 10:28:54;;;;;;;6.15;3.58;;;;;;;5.40;100.00;92894.50;4884866;29;20040;-82
2021/12/08 10:31:45;;;;;;;5.90;2.40;;;;;;;5.83;100.00;92883.50;4896458;29;20113;-83
2021/12/08 10:34:47;;;;;;;4.35;2.28;;;;;;;5.57;100.00;92889.69;4924785;29;20091;-83
2021/12/08 10:37:19;;;;;;;6.28;2.50;;;;;;;5.71;100.00;92858.66;4919836;29;20039;-83
2021/12/08 10:39:46;;;;;;;8.70;2.80;;;;;;;6.34;100.00;92832.84;4903062;29;20450;-83
2021/12/08 10:42:18;;;;;;;7.30;3.15;;;;;;;5.87;100.00;92832.53;4918844;29;20031;-83
2021/12/08 10:45:08;;;;;;;7.40;2.90;;;;;;;5.18;100.00;92847.13;4920100;29;20035;-83
2021/12/08 10:47:37;;;;;;;7.68;3.15;;;;;;;5.25;100.00;92839.03;4919015;29;20036;-83
2021/12/08 10:56:08;;;;;;;3.30;1.92;;;;;;;5.60;100.00;92816.41;4913564;29;20124;-84
2021/12/08 10:58:39;;;;;;;7.32;2.20;;;;;;;5.46;100.00;92794.72;4899953;29;20446;-84
2021/12/08 11:04:11;;;;;;;6.25;2.80;;;;;;;6.23;100.00;92793.94;4899973;29;20067;-84
2021/12/08 11:06:38;;;;;;;3.65;2.30;;;;;;;6.11;100.00;92764.97;4899863;29;20033;-84
2021/12/08 11:09:12;;;;;;;3.80;2.15;;;;;;;6.21;100.00;92771.88;4884164;29;20334;-84
2021/12/08 11:11:43;;;;;;;4.75;2.67;;;;;;;6.17;100.00;92763.84;4884277;29;20040;-83
2021/12/08 11:14:09;;;;;;;3.92;2.15;;;;;;;5.88;100.00;92767.28;4914248;29;20062;-83
2021/12/08 11:20:31;;;;;;;11.20;5.70;;;;;;;5.79;100.00;92764.50;4900920;29;20063;-84
2021/12/08 11:23:04;;;;;;;7.03;3.60;;;;;;;5.28;100.00;92776.16;4913801;29;20044;-84
2021/12/08 11:28:29;;;;;;;6.75;3.92;;;;;;;5.09;100.00;92773.47;4904490;29;20043;-84
2021/12/08 11:31:09;;;;;;;14.45;5.43;;;;;;;5.10;100.00;92762.03;4904508;29;20032;-84
2021/12/08 11:33:41;;;;;;;9.43;4.32;;;;;;;4.92;100.00;92759.03;4904339;29;20044;-84
2021/12/08 11:36:20;;;;;;;12.50;5.90;;;;;;;4.77;100.00;92751.38;4888226;29;20037;-84
2021/12/08 11:38:48;;;;;;;8.80;4.35;;;;;;;4.60;100.00;92736.16;4887999;29;20108;-84
2021/12/08 11:41:36;;;;;;;14.55;4.90;;;;;;;4.74;100.00;92757.88;4890534;29;20036;-83
2021/12/08 11:44:22;;;;;;;10.90;5.50;;;;;;;4.41;100.00;92751.59;4906146;29;20035;-84
2021/12/08 11:46:51;;;;;;;11.18;5.13;;;;;;;4.50;100.00;92752.56;4898799;29;20063;-84
2021/12/08 11:49:18;;;;;;;11.73;6.15;;;;;;;4.42;100.00;92753.91;4905466;29;20485;-84
2021/12/08 11:51:43;;;;;;;12.93;6.72;;;;;;;4.36;100.00;92757.56;4903467;29;20037;-84
2021/12/08 11:54:40;;;;;;;12.80;6.22;;;;;;;4.55;100.00;92749.19;4904314;29;20434;-84
2021/12/08 11:57:25;;;;;;;17.13;7.53;;;;;;;4.50;100.00;92742.19;4904388;29;20032;-83
2021/12/08 11:59:55;;;;;;;17.77;7.63;;;;;;;4.59;100.00;92748.38;4895809;29;20033;-83
2021/12/08 12:02:32;;;;;;;19.02;8.65;;;;;;;4.38;100.00;92732.16;4921760;29;20043;-83
2021/12/08 12:04:59;;;;;;;24.95;11.45;;;;;;;4.67;100.00;92715.91;4907460;29;20032;-83
2021/12/08 12:07:24;;;;;;;20.73;10.25;;;;;;;4.39;100.00;92711.13;4915507;29;20043;-83
2021/12/08 12:12:53;;;;;;;19.35;8.90;;;;;;;4.36;100.00;92703.91;4921766;29;20128;-83
2021/12/08 12:15:38;;;;;;;21.35;9.98;;;;;;;4.38;100.00;92690.69;4923025;29;20482;-83
2021/12/08 12:18:04;;;;;;;17.60;10.57;;;;;;;4.48;100.00;92703.56;4921704;29;20036;-83
2021/12/08 12:20:39;;;;;;;20.17;10.40;;;;;;;4.61;100.00;92696.22;4921670;29;20341;-83
2021/12/08 12:23:12;;;;;;;19.38;10.48;;;;;;;4.52;100.00;92704.59;4937540;29;20043;-83
2021/12/08 12:25:58;;;;;;;17.45;9.32;;;;;;;4.71;100.00;92713.53;4918797;29;20064;-84
2021/12/08 12:29:00;;;;;;;32.83;17.58;;;;;;;4.27;100.00;92713.28;4903628;29;20036;-84
2021/12/08 12:34:26;;;;;;;59.17;33.60;;;;;;;2.14;100.00;92724.97;4903027;29;20084;-84
2021/12/08 12:36:56;;;;;;;61.40;37.47;;;;;;;1.39;100.00;92713.88;4902481;29;20040;-85
2021/12/08 12:39:24;;;;;;;61.03;36.78;;;;;;;1.16;100.00;92720.19;4902512;29;20033;-84
2021/12/08 12:42:15;;;;;;;72.20;39.40;;;;;;;1.10;100.00;92733.06;4886911;29;20043;-84
2021/12/08 12:44:44;;;;;;;66.80;38.08;;;;;;;0.98;100.00;92730.66;4902005;29;20490;-84
2021/12/08 12:47:14;;;;;;;72.43;40.85;;;;;;;0.51;100.00;92744.19;4909505;29;20087;-84
2021/12/08 12:49:44;;;;;;;79.38;44.72;;;;;;;0.61;100.00;92749.44;4921489;29;20043;-83
2021/12/08 12:52:12;;;;;;;88.57;47.25;;;;;;;0.67;100.00;92753.63;4905282;29;20111;-83
2021/12/08 12:57:29;;;;;;;99.00;50.47;;;;;;;1.03;100.00;92765.25;4921022;29;20087;-86
2021/12/08 12:59:55;;;;;;;109.68;54.22;;;;;;;1.25;100.00;92771.06;4929741;29;20028;-86
2021/12/08 13:02:36;;;;;;;105.15;54.63;;;;;;;1.31;100.00;92786.59;4936587;29;20039;-86
2021/12/08 13:05:08;;;;;;;118.80;57.92;;;;;;;1.10;100.00;92789.03;4921790;29;20036;-86
2021/12/08 13:07:39;;;;;;;89.60;49.17;;;;;;;1.38;100.00;92795.69;4905912;29;20062;-85
2021/12/08 13:10:13;;;;;;;87.07;47.75;;;;;;;0.65;100.00;92785.84;4920682;29;20284;-85
2021/12/08 13:12:46;;;;;;;91.50;48.42;;;;;;;0.65;100.00;92773.72;4905317;29;20036;-85
2021/12/08 13:15:19;;;;;;;90.80;47.25;;;;;;;0.99;100.00;92773.47;4889154;29;20036;-85
2021/12/08 13:18:01;;;;;;;;;;;;;;;1.31;100.00;92768.53;4905523;29;20122;-85
2021/12/08 13:24:03;;;;;;;149.88;66.10;;;;;;;1.50;100.00;92738.69;4895926;29;20037;-85
2021/12/08 13:31:05;;;;;;;103.07;53.70;;;;;;;1.50;100.00;92717.25;4881983;29;20057;-85
2021/12/08 13:41:19;;;;;;;;;;;;;;;;;;;;;
2021/12/08 13:45:03;;;;;;;68.53;36.47;;;;;;;2.07;100.00;92682.09;4753523;30;20036;-86
2021/12/08 13:47:29;;;;;;;69.50;36.90;;;;;;;1.77;100.00;92672.44;4749988;29;20186;-85
2021/12/08 13:53:21;;;;;;;74.55;40.13;;;;;;;1.63;100.00;92661.84;4811119;29;20496;-86
2021/12/08 13:55:53;;;;;;;71.78;40.80;;;;;;;1.83;100.00;92666.28;4829083;29;20048;-86
2021/12/08 13:58:20;;;;;;;64.80;36.37;;;;;;;1.85;100.00;92661.63;4859153;29;20093;-86
2021/12/08 14:00:58;;;;;;;70.80;39.47;;;;;;;1.44;100.00;92651.97;4885319;29;20035;-86
2021/12/08 14:03:34;;;;;;;70.63;38.63;;;;;;;1.57;100.00;92648.13;4885085;29;20036;-86
2021/12/08 14:06:03;;;;;;;63.13;36.85;;;;;;;1.43;100.00;92652.22;4894522;29;20346;-86
2021/12/08 14:08:38;;;;;;;68.72;38.53;;;;;;;1.60;100.00;92646.84;4901556;29;20039;-86
2021/12/08 14:11:10;;;;;;;69.57;40.70;;;;;;;1.77;100.00;92642.25;4900542;29;20044;-87
2021/12/08 14:13:38;;;;;;;74.20;39.78;;;;;;;1.78;100.00;92635.25;4898619;29;20037;-86
2021/12/08 14:16:09;;;;;;;73.25;40.50;;;;;;;1.66;100.00;92631.13;4901671;29;20037;-86
2021/12/08 14:18:47;;;;;;;80.95;43.10;;;;;;;1.25;100.00;92675.59;4900499;29;20029;-86
2021/12/08 14:21:17;;;;;;;86.15;45.33;;;;;;;1.04;100.00;92648.16;4900437;29;20040;-86
2021/12/08 14:23:55;;;;;;;94.50;49.05;;;;;;;1.06;100.00;92646.09;4900097;29;20458;-86
2021/12/08 14:26:29;;;;;;;95.75;48.28;;;;;;;1.20;100.00;92678.16;4909883;29;20414;-87
2021/12/08 14:28:58;;;;;;;99.20;50.78;;;;;;;1.24;100.00;92679.22;4918138;29;20036;-87
2021/12/08 14:31:44;;;;;;;88.00;46.33;;;;;;;1.27;100.00;92689.03;4897728;29;20445;-87
2021/12/08 14:34:21;;;;;;;728.15;71.25;;;;;;;1.18;100.00;92667.31;4905468;29;20047;-86
2021/12/08 14:37:03;;;;;;;178.15;62.58;;;;;;;1.17;100.00;92658.03;4910353;29;20032;-86
2021/12/08 14:39:38;;;;;;;93.07;45.63;;;;;;;1.27;100.00;92683.88;4905305;29;20028;-86
2021/12/08 14:42:09;;;;;;;94.75;49.17;;;;;;;1.35;100.00;92681.84;4899816;29;20084;-86
2021/12/08 14:44:42;;;;;;;91.30;46.72;;;;;;;1.18;100.00;92672.50;4900993;29;20056;-86
2021/12/08 14:47:13;;;;;;;98.10;48.95;;;;;;;1.20;100.00;92691.06;4886026;29;20028;-86
2021/12/08 14:49:54;;;;;;;118.03;58.05;;;;;;;0.99;100.00;92690.94;4917237;29;20036;-85
2021/12/08 14:52:20;;;;;;;414.85;55.35;;;;;;;0.92;100.00;92692.97;4899678;29;20517;-85
2021/12/08 14:54:48;;;;;;;154.52;47.08;;;;;;;1.16;100.00;92702.91;4902357;29;20175;-86
2021/12/08 14:57:25;;;;;;;1282.53;98.32;;;;;;;0.83;100.00;92648.81;4917273;29;20032;-87
2021/12/08 14:59:54;;;;;;;114.43;49.78;;;;;;;0.62;100.00;92654.84;4918316;29;20036;-86
2021/12/08 15:02:32;;;;;;;115.50;53.13;;;;;;;0.58;100.00;92677.00;4918510;29;20126;-86
2021/12/08 15:05:02;;;;;;;156.65;55.85;;;;;;;0.48;100.00;92693.16;4903052;29;20032;-86
2021/12/08 15:07:28;;;;;;;134.30;57.05;;;;;;;0.64;100.00;92717.22;4918378;29;20406;-86
2021/12/08 15:09:58;;;;;;;109.40;48.15;;;;;;;0.25;100.00;92759.41;4919219;29;20369;-85
2021/12/08 15:12:27;;;;;;;136.27;49.58;;;;;;;0.25;100.00;92725.94;4900123;29;20040;-86
2021/12/08 15:14:52;;;;;;;115.40;50.15;;;;;;;0.31;100.00;92749.94;4899967;29;20433;-86
2021/12/08 15:17:31;;;;;;;110.22;49.35;;;;;;;0.20;100.00;92757.56;4899512;29;20040;-86
2021/12/08 15:19:58;;;;;;;115.35;51.08;;;;;;;0.26;100.00;92717.19;4899641;29;20032;-86
2021/12/08 15:22:31;;;;;;;127.85;50.72;;;;;;;0.30;100.00;92697.66;4905430;29;20126;-86
2021/12/08 15:25:18;;;;;;;119.80;49.58;;;;;;;0.31;100.00;92698.41;4917950;29;20087;-86
2021/12/08 15:27:46;;;;;;;107.43;45.90;;;;;;;0.09;100.00;92665.78;4902940;29;20036;-86
2021/12/08 15:30:13;;;;;;;112.28;46.90;;;;;;;0.24;100.00;92673.66;4919102;29;20024;-86
2021/12/08 15:32:39;;;;;;;106.07;45.80;;;;;;;0.31;100.00;92693.25;4918614;29;20032;-86
2021/12/08 15:35:06;;;;;;;108.50;46.88;;;;;;;0.25;100.00;92703.53;4918593;29;20032;-86
2021/12/08 15:37:33;;;;;;;213.30;52.30;;;;;;;0.18;100.00;92679.00;4918525;29;20076;-86
2021/12/08 15:39:59;;;;;;;299.58;61.53;;;;;;;0.32;100.00;92677.56;4917596;29;20028;-86
2021/12/08 15:42:30;;;;;;;183.27;56.90;;;;;;;0.31;100.00;92690.69;4909643;29;20039;-86
2021/12/08 15:44:59;;;;;;;128.93;52.05;;;;;;;0.52;100.00;92683.91;4915580;29;20063;-86
2021/12/08 15:47:24;;;;;;;974.38;91.03;;;;;;;0.52;100.00;92704.53;4918459;29;20032;-86
2021/12/08 15:49:51;;;;;;;259.70;50.15;;;;;;;0.66;100.00;92697.94;4917680;29;20091;-86
2021/12/08 15:52:21;;;;;;;1821.75;157.52;;;;;;;0.12;100.00;92691.81;4907704;29;20483;-86
2021/12/08 15:54:47;;;;;;;169.60;46.30;;;;;;;0.37;100.00;92648.50;4917182;29;20055;-86